• Join FlightAware (Why Join?)
  • Login
  • US Flag 
05:02AM EDT


 

Airport Tracker/Info


-or-


 

Live Flight TrackerFlight Track Log ✈ SKW5550 ✈ 17-Jan-2014 ✈ KCOD - KDEN

Flight Track Log - Related Links

Times and Time Zones

All times are in EST time to prevent confusion due to time zone crossing. See the SKW5550 flight status page for this flight to view local times or setup timezone preferences in your user account.

Time Position Orientation Groundspeed Altitude Reporting Facility
EST Latitude Longitude Course Direction KTS MPH feet Rate Location/Type
08:12AM 43.7462 -108.2434 157° South  Level Estimated
08:13AM 43.6536 -108.1517 156° South  Level Estimated
08:14AM 43.5608 -108.0603 142° Southeast  Level Estimated
08:15AM 43.4562 -107.9982 157° South  Level FlightAware Approximate
08:15AM 44.2917 -108.7764 148° Southeast 352 405 18,400  Level Salt Lake Center
08:18AM 44.0297 -108.6222 158° South 397 457 22,600 1,500 Climbing Denver Center
08:19AM 43.0372 -107.7519 157° South  Level FlightAware Approximate
08:19AM 43.9267 -108.5628 157° South 404 465 23,800  Level Denver Center
08:20AM 42.9462 -107.6581 143° Southeast  Level Estimated
08:20AM 43.8211 -108.5025 158° South 412 474 25,000  Level Denver Center
08:21AM 42.8499 -107.5749 148° Southeast  Level FlightAware Approximate
08:21AM 43.7106 -108.4400 158° South 429 494 25,000  Level Denver Center
08:22AM 43.5994 -108.3764 157° South 433 498 25,000  Level Denver Center
08:23AM 43.4900 -108.3147 158° South 429 494 25,000  Level Denver Center
08:24AM 43.3919 -108.2242 146° Southeast 429 494 25,000  Level Denver Center
08:25AM 43.2989 -108.1256 142° Southeast 424 488 25,000  Level Denver Center
08:26AM 43.2053 -108.0247 142° Southeast 428 493 25,000  Level Denver Center
08:27AM 43.1003 -107.9144 143° Southeast 424 488 25,000  Level Denver Center
08:28AM 43.0100 -107.8197 142° Southeast 426 490 25,000  Level Denver Center
08:29AM 42.9192 -107.7250 143° Southeast 428 493 25,000  Level Denver Center
08:30AM 42.8136 -107.6150 143° Southeast 427 491 25,000  Level Denver Center
08:31AM 42.7225 -107.5211 143° Southeast 427 491 25,000  Level Denver Center
08:32AM 42.6308 -107.4256 143° Southeast 432 497 25,000  Level Denver Center
08:33AM 42.5403 -107.3331 143° Southeast 426 490 25,000  Level Denver Center
08:34AM 42.4344 -107.2242 143° Southeast 426 490 25,000  Level Denver Center
08:35AM 42.3431 -107.1311 143° Southeast 426 490 25,000  Level Denver Center
08:36AM 42.2531 -107.0386 143° Southeast 426 490 25,000  Level Denver Center
08:37AM 42.1467 -106.9314 143° Southeast 427 491 25,000  Level Denver Center
08:38AM 42.0556 -106.8397 143° Southeast 427 491 25,000  Level Denver Center
08:39AM 41.9647 -106.7478 143° Southeast 427 491 25,000  Level Denver Center
08:40AM 41.8578 -106.6417 144° Southeast 427 491 25,000  Level Denver Center
08:41AM 41.7658 -106.5500 143° Southeast 430 495 25,000  Level Denver Center
08:42AM 41.6722 -106.4567 143° Southeast 428 493 25,000  Level Denver Center
08:43AM 41.5661 -106.3514 143° Southeast 427 491 25,000  Level Denver Center
08:44AM 41.4747 -106.2619 144° Southeast 426 490 25,000  Level Denver Center
08:45AM 41.3686 -106.2064 159° South 427 491 25,000  Level Denver Center
08:46AM 41.2425 -106.1517 162° South 429 494 25,000  Level Denver Center
08:47AM 41.1325 -106.1058 163° South 431 496 25,000  Level Denver Center
08:48AM 41.0283 -106.0478 157° South 426 490 25,000  Level Denver Center
08:49AM 40.9144 -105.9819 156° South 435 501 25,000 -240 Level Denver Center
08:50AM 40.8378 -105.8658 131° Southeast 425 489 24,600 -840 Descending Denver Center
08:51AM 40.7678 -105.7361 125° Southeast 431 496 23,400 -1,380 Descending Denver Center
08:52AM 40.7000 -105.6153 126° Southeast 417 480 21,900 -1,440 Descending Denver Center
08:53AM 40.6361 -105.4986 126° Southeast 396 456 20,600 -1,260 Descending Denver Center
08:54AM 40.5719 -105.3819 126° Southeast 392 451 19,400 -1,260 Descending Denver Center
08:55AM 40.5100 -105.2689 126° Southeast 386 444 18,100 -1,260 Descending Denver Center
08:56AM 40.4664 -105.1433 115° Southeast 329 379 16,900 -1,200 Descending Denver Center
08:57AM 40.4356 -105.0342 110° East 321 369 15,700 -1,140 Descending Denver Center
08:58AM 40.4061 -104.9325 111° Southeast 304 350 14,700 -1,020 Descending Denver Center
08:59AM 40.3386 -104.8708 145° Southeast 313 360 13,700 -1,320 Descending Denver Center
09:00AM 40.2556 -104.8286 159° South 297 342 12,100 -1,500 Descending Denver Center
09:01AM 40.1800 -104.7922 160° South 289 333 10,700 -1,320 Descending Denver Center
09:02AM 40.1075 -104.7558 159° South 280 322 9,500 -1,200 Descending Denver Center
09:03AM 40.0425 -104.7217 158° South 253 291 8,400 -1,200 Descending Denver Center
09:04AM 39.9861 -104.7000 164° South 214 246 7,100 -1,140 Descending Denver Center
09:05AM 39.9361 -104.6953 176° South 178 205 6,200 -840 Descending Denver Center
09:06AM 39.8958 -104.6958 181° South 147 169 5,400 -840 Descending Denver Center